createdAt,value
2022-11-01T00:02:56.353Z,122
2022-11-01T00:04:57.348Z,122
2022-11-01T00:09:00.755Z,122
2022-11-01T00:11:01.931Z,122
2022-11-01T00:15:04.637Z,122
2022-11-01T00:19:07.457Z,122
2022-11-01T00:21:08.897Z,122
2022-11-01T00:25:11.694Z,122
2022-11-01T00:29:13.641Z,122
2022-11-01T00:31:15.337Z,122
2022-11-01T00:33:16.373Z,122
2022-11-01T00:35:17.233Z,122
2022-11-01T00:37:18.723Z,122
2022-11-01T00:39:19.805Z,122
2022-11-01T00:41:21.019Z,122
2022-11-01T00:43:22.244Z,122
2022-11-01T00:45:24.075Z,122
2022-11-01T00:47:25.103Z,122
2022-11-01T00:49:27.013Z,122
2022-11-01T00:51:27.978Z,122
2022-11-01T00:53:29.743Z,122
2022-11-01T00:57:32.943Z,122
2022-11-01T00:59:35.047Z,122
2022-11-01T01:01:36.488Z,122
2022-11-01T01:03:38.199Z,122
2022-11-01T01:07:40.788Z,122
2022-11-01T01:09:41.851Z,122
2022-11-01T01:11:43.523Z,122
2022-11-01T01:13:45.179Z,122
2022-11-01T01:15:46.277Z,122
2022-11-01T01:17:48.065Z,122
2022-11-01T01:19:49.582Z,122
2022-11-01T01:23:52.058Z,122
2022-11-01T01:25:53.609Z,122
2022-11-01T01:27:55.112Z,122
2022-11-01T01:29:56.423Z,122
2022-11-01T01:31:57.966Z,122
2022-11-01T01:33:58.865Z,122
2022-11-01T01:36:00.056Z,122
2022-11-01T01:38:01.608Z,122
2022-11-01T01:40:02.530Z,122
2022-11-01T01:42:03.678Z,122
2022-11-01T01:44:04.811Z,122
2022-11-01T01:46:06.572Z,122
2022-11-01T01:50:09.318Z,122
2022-11-01T01:52:10.795Z,122
2022-11-01T01:54:11.997Z,122
2022-11-01T01:56:13.293Z,122
2022-11-01T02:00:16.846Z,122
2022-11-01T02:02:18.298Z,122
2022-11-01T02:04:19.905Z,122
2022-11-01T02:06:21.487Z,122
2022-11-01T02:08:22.491Z,122
2022-11-01T02:10:24.382Z,122
2022-11-01T02:12:25.971Z,122
2022-11-01T02:14:36.703Z,122
2022-11-01T02:16:28.748Z,122
2022-11-01T02:18:30.566Z,122
2022-11-01T02:22:34.275Z,122
2022-11-01T02:24:36.100Z,122
2022-11-01T02:28:39.311Z,122
2022-11-01T02:30:41.099Z,122
2022-11-01T02:32:42.053Z,122
2022-11-01T02:34:43.754Z,122
2022-11-01T02:38:46.640Z,122
2022-11-01T02:42:49.525Z,122
2022-11-01T02:44:51.047Z,122
2022-11-01T02:46:52.331Z,122
2022-11-01T02:48:53.560Z,122
2022-11-01T02:50:55.047Z,122
2022-11-01T02:52:56.955Z,122
2022-11-01T02:54:58.307Z,122
2022-11-01T02:57:00.325Z,122
2022-11-01T02:59:01.684Z,122
2022-11-01T03:01:03.647Z,122
2022-11-01T03:05:06.907Z,122
2022-11-01T03:07:07.960Z,122
2022-11-01T03:09:09.442Z,122
2022-11-01T03:11:10.696Z,122
2022-11-01T03:15:14.202Z,122
2022-11-01T03:17:15.755Z,122
2022-11-01T03:21:18.580Z,122
2022-11-01T03:22:02.365Z,122
2022-11-01T03:24:03.806Z,122
2022-11-01T03:26:05.261Z,122
2022-11-01T03:30:08.190Z,122
2022-11-01T03:32:09.592Z,122
2022-11-01T03:34:11.290Z,122
2022-11-01T03:36:14.441Z,122
2022-11-01T03:38:13.643Z,122
2022-11-01T03:40:15.183Z,122
2022-11-01T03:42:16.287Z,122
2022-11-01T03:44:18.104Z,122
2022-11-01T03:46:19.164Z,122
2022-11-01T03:48:20.899Z,122
2022-11-01T03:50:22.810Z,122
2022-11-01T03:52:24.024Z,122
2022-11-01T03:54:25.172Z,122
2022-11-01T03:58:27.954Z,122
2022-11-01T04:00:29.211Z,122
2022-11-01T04:04:31.483Z,122
2022-11-01T04:08:34.395Z,122
2022-11-01T04:10:36.059Z,122
2022-11-01T04:12:37.009Z,122
2022-11-01T04:14:38.293Z,122
2022-11-01T04:20:42.145Z,122
2022-11-01T04:22:43.755Z,122
2022-11-01T04:24:45.184Z,122
2022-11-01T04:28:48.010Z,29
2022-11-01T04:30:49.215Z,29
2022-11-01T04:32:50.444Z,29
2022-11-01T04:36:53.300Z,29
2022-11-01T04:40:55.819Z,29
2022-11-01T04:42:57.178Z,29
2022-11-01T04:44:58.496Z,29
2022-11-01T04:46:59.531Z,29
2022-11-01T04:51:02.282Z,29
2022-11-01T04:53:04.113Z,29
2022-11-01T04:57:06.059Z,29
2022-11-01T05:01:09.329Z,29
2022-11-01T05:03:10.317Z,29
2022-11-01T05:07:12.999Z,29
2022-11-01T05:11:15.110Z,29
2022-11-01T05:13:16.617Z,29
2022-11-01T05:15:17.998Z,29
2022-11-01T05:17:19.546Z,29
2022-11-01T05:19:21.208Z,29
2022-11-01T05:21:22.397Z,29
2022-11-01T05:23:23.921Z,29
2022-11-01T05:27:26.572Z,29
2022-11-01T05:29:32.767Z,29
2022-11-01T05:31:29.254Z,29
2022-11-01T05:33:30.674Z,29
2022-11-01T05:35:31.989Z,29
2022-11-01T05:39:34.766Z,29
2022-11-01T05:41:36.249Z,29
2022-11-01T05:43:37.520Z,29
2022-11-01T05:45:38.868Z,29
2022-11-01T05:49:41.928Z,29
2022-11-01T05:51:43.304Z,29
2022-11-01T05:53:45.091Z,29
2022-11-01T05:55:46.871Z,29
2022-11-01T05:59:49.544Z,29
2022-11-01T06:01:50.734Z,29
2022-11-01T06:03:51.767Z,29
2022-11-01T06:05:53.645Z,29
2022-11-01T06:09:57.009Z,29
2022-11-01T06:11:58.316Z,29
2022-11-01T06:13:59.250Z,29
2022-11-01T06:16:00.178Z,29
2022-11-01T06:18:02.163Z,29
2022-11-01T06:22:05.578Z,29
2022-11-01T06:24:06.665Z,29
2022-11-01T06:28:09.630Z,29
2022-11-01T06:30:10.585Z,29
2022-11-01T06:32:11.974Z,29
2022-11-01T06:34:12.907Z,29
2022-11-01T06:36:13.948Z,29
2022-11-01T06:38:15.385Z,29
2022-11-01T06:40:16.404Z,28
2022-11-01T06:42:17.885Z,28
2022-11-01T06:44:18.953Z,28
2022-11-01T06:46:19.923Z,28
2022-11-01T06:56:27.430Z,360
2022-11-01T06:58:28.691Z,360
2022-11-01T07:00:30.247Z,360
2022-11-01T07:02:32.164Z,360
2022-11-01T07:04:33.150Z,360
2022-11-01T07:06:34.852Z,360
2022-11-01T07:08:35.923Z,360
2022-11-01T07:10:37.370Z,360
2022-11-01T07:12:38.429Z,360
2022-11-01T07:14:39.999Z,360
2022-11-01T07:16:41.532Z,360
2022-11-01T07:24:46.967Z,360
2022-11-01T07:26:48.890Z,360
2022-11-01T07:30:51.439Z,360
2022-11-01T07:34:54.015Z,360
2022-11-01T07:36:55.283Z,360
2022-11-01T07:38:56.417Z,360
2022-11-01T07:40:57.989Z,308
2022-11-01T07:42:59.612Z,297
2022-11-01T07:45:00.469Z,296
2022-11-01T07:47:01.627Z,295
2022-11-01T07:49:03.470Z,295
2022-11-01T07:51:04.584Z,299
2022-11-01T07:53:06.252Z,297
2022-11-01T07:55:07.368Z,297
2022-11-01T07:57:08.529Z,297
2022-11-01T07:59:10.054Z,297
2022-11-01T08:03:12.719Z,297
2022-11-01T08:05:13.777Z,297
2022-11-01T08:07:15.673Z,297
2022-11-01T08:09:17.421Z,297
2022-11-01T08:13:20.123Z,297
2022-11-01T08:15:21.518Z,297
2022-11-01T08:17:23.382Z,297
2022-11-01T08:19:25.016Z,291
2022-11-01T08:21:25.978Z,293
2022-11-01T08:23:27.003Z,265
2022-11-01T08:25:28.324Z,265
2022-11-01T08:27:30.354Z,265
2022-11-01T08:29:31.396Z,265
2022-11-01T08:31:33.240Z,265
2022-11-01T08:33:34.287Z,265
2022-11-01T08:35:35.242Z,265
2022-11-01T08:37:36.227Z,265
2022-11-01T08:39:38.023Z,265
2022-11-01T08:41:39.491Z,265
2022-11-01T08:45:42.820Z,265
2022-11-01T08:47:44.646Z,265
2022-11-01T08:49:46.214Z,265
2022-11-01T08:51:47.181Z,265
2022-11-01T08:55:50.102Z,265
2022-11-01T08:57:51.064Z,265
2022-11-01T09:01:53.754Z,265
2022-11-01T09:05:56.122Z,265
2022-11-01T09:07:57.857Z,199
2022-11-01T09:09:59.269Z,242
2022-11-01T09:12:00.533Z,242
2022-11-01T09:18:04.966Z,258
2022-11-01T09:20:06.977Z,223
2022-11-01T09:22:07.953Z,259
2022-11-01T09:24:09.450Z,254
2022-11-01T09:28:11.857Z,218
2022-11-01T09:32:14.303Z,236
2022-11-01T09:34:15.758Z,244
2022-11-01T09:38:18.989Z,249
2022-11-01T09:40:19.934Z,246
2022-11-01T09:44:22.964Z,298
2022-11-01T09:48:25.548Z,251
2022-11-01T09:50:27.260Z,214
2022-11-01T09:54:29.855Z,261
2022-11-01T09:56:30.733Z,266
2022-11-01T09:58:31.961Z,174
2022-11-01T10:00:33.193Z,202
2022-11-01T10:02:34.885Z,264
2022-11-01T10:04:36.543Z,257
2022-11-01T10:06:37.470Z,214
2022-11-01T10:09:22.740Z,270
2022-11-01T10:11:23.583Z,287
2022-11-01T10:13:25.186Z,217
2022-11-01T10:15:26.142Z,283
2022-11-01T10:17:26.949Z,249
2022-11-01T10:21:30.142Z,242
2022-11-01T10:23:31.675Z,198
2022-11-01T10:27:36.335Z,246
2022-11-01T10:31:36.419Z,283
2022-11-01T10:33:38.088Z,242
2022-11-01T10:35:39.741Z,229
2022-11-01T10:37:47.158Z,279
2022-11-01T10:41:43.737Z,213
2022-11-01T10:43:45.179Z,232
2022-11-01T10:45:47.535Z,233
2022-11-01T10:47:47.817Z,222
2022-11-01T10:51:50.290Z,192
2022-11-01T10:53:51.193Z,210
2022-11-01T10:55:52.649Z,250
2022-11-01T10:57:54.384Z,221
2022-11-01T10:59:55.872Z,256
2022-11-01T11:03:57.980Z,269
2022-11-01T11:05:59.395Z,216
2022-11-01T11:08:00.597Z,272
2022-11-01T11:14:04.514Z,217
2022-11-01T11:16:05.525Z,285
2022-11-01T11:20:07.932Z,233
2022-11-01T11:24:11.173Z,261
2022-11-01T11:26:12.428Z,259
2022-11-01T11:30:14.948Z,231
2022-11-01T11:34:18.260Z,242
2022-11-01T11:36:19.101Z,231
2022-11-01T11:38:20.143Z,236
2022-11-01T11:40:21.033Z,225
2022-11-01T11:42:22.647Z,210
2022-11-01T11:44:23.969Z,233
2022-11-01T11:46:25.345Z,222
2022-11-01T11:48:26.336Z,266
2022-11-01T11:50:27.230Z,249
2022-11-01T11:52:29.379Z,245
2022-11-01T11:54:29.748Z,265
2022-11-01T11:56:30.966Z,246
2022-11-01T11:58:31.922Z,192
2022-11-01T12:02:34.796Z,186
2022-11-01T12:04:36.429Z,233
2022-11-01T12:06:37.790Z,188
2022-11-01T12:08:39.288Z,223
2022-11-01T12:12:42.234Z,216
2022-11-01T12:14:43.729Z,265
2022-11-01T12:16:45.244Z,291
2022-11-01T12:18:46.600Z,288
2022-11-01T12:20:48.236Z,239
2022-11-01T12:22:49.812Z,275
2022-11-01T12:24:51.586Z,287
2022-11-01T12:26:52.587Z,229
2022-11-01T12:28:54.492Z,230
2022-11-01T12:32:56.546Z,249
2022-11-01T12:34:57.399Z,206
2022-11-01T12:41:02.002Z,238
2022-11-01T12:45:04.654Z,232
2022-11-01T12:47:06.199Z,270
2022-11-01T12:49:07.079Z,236
2022-11-01T12:51:08.506Z,232
2022-11-01T12:53:09.526Z,257
2022-11-01T12:55:11.909Z,236
2022-11-01T12:57:12.130Z,306
2022-11-01T13:01:14.682Z,230
2022-11-01T13:05:16.847Z,265
2022-11-01T13:07:18.633Z,264
2022-11-01T13:11:21.215Z,236
2022-11-01T13:15:24.290Z,360
2022-11-01T13:17:24.193Z,226
2022-11-01T13:25:28.942Z,263
2022-11-01T13:27:29.770Z,244
2022-11-01T13:29:31.039Z,191
2022-11-01T13:31:31.867Z,266
2022-11-01T13:33:32.890Z,284
2022-11-01T13:35:34.292Z,255
2022-11-01T13:37:35.572Z,250
2022-11-01T13:39:36.795Z,247
2022-11-01T13:41:38.437Z,286
2022-11-01T13:43:39.994Z,240
2022-11-01T13:47:42.756Z,217
2022-11-01T13:49:44.316Z,238
2022-11-01T13:53:46.985Z,238
2022-11-01T13:55:48.162Z,259
2022-11-01T13:57:49.659Z,227
2022-11-01T13:59:50.785Z,235
2022-11-01T14:03:53.188Z,261
2022-11-01T14:05:54.133Z,256
2022-11-01T14:07:55.635Z,275
2022-11-01T14:09:57.044Z,229
2022-11-01T14:13:59.600Z,230
2022-11-01T14:16:01.194Z,235
2022-11-01T14:18:02.742Z,258
2022-11-01T14:20:03.592Z,236
2022-11-01T14:22:04.876Z,249
2022-11-01T14:26:07.870Z,250
2022-11-01T14:28:08.825Z,263
2022-11-01T14:30:10.394Z,214
2022-11-01T14:32:11.512Z,228
2022-11-01T14:36:14.505Z,239
2022-11-01T14:38:16.363Z,238
2022-11-01T14:40:18.100Z,229
2022-11-01T14:42:19.490Z,201
2022-11-01T14:44:20.705Z,201
2022-11-01T14:46:22.164Z,278
2022-11-01T14:48:23.857Z,289
2022-11-01T14:50:24.842Z,245
2022-11-01T14:52:26.521Z,224
2022-11-01T14:54:28.283Z,282
2022-11-01T14:58:30.449Z,296
2022-11-01T15:00:31.659Z,263
2022-11-01T15:02:33.419Z,247
2022-11-01T15:04:34.244Z,264
2022-11-01T15:08:36.547Z,259
2022-11-01T15:10:38.153Z,259
2022-11-01T15:12:42.517Z,269
2022-11-01T15:14:40.932Z,269
2022-11-01T15:18:44.269Z,266
2022-11-01T15:20:45.349Z,266
2022-11-01T15:22:46.863Z,279
2022-11-01T15:24:48.135Z,290
2022-11-01T15:28:50.508Z,260
2022-11-01T15:30:51.629Z,273
2022-11-01T15:32:53.278Z,273
2022-11-01T15:34:54.308Z,273
2022-11-01T15:36:55.983Z,238
2022-11-01T15:40:59.397Z,265
2022-11-01T15:45:01.936Z,282
2022-11-01T15:47:02.947Z,260
2022-11-01T15:49:04.128Z,272
2022-11-01T15:51:05.427Z,272
2022-11-01T15:53:06.682Z,252
2022-11-01T15:57:08.233Z,252
2022-11-01T15:59:09.716Z,254
2022-11-01T16:01:11.615Z,254
2022-11-01T16:03:13.159Z,254
2022-11-01T16:07:16.474Z,254
2022-11-01T16:11:19.175Z,258
2022-11-01T16:13:20.655Z,259
2022-11-01T16:15:21.625Z,259
2022-11-01T16:17:23.151Z,259
2022-11-01T16:19:24.298Z,259
2022-11-01T16:21:26.110Z,259
2022-11-01T16:23:27.498Z,259
2022-11-01T16:25:28.987Z,259
2022-11-01T16:27:30.141Z,259
2022-11-01T16:29:31.261Z,259
2022-11-01T16:31:32.670Z,260
2022-11-01T16:33:33.971Z,207
2022-11-01T16:35:35.800Z,207
2022-11-01T16:37:37.569Z,208
2022-11-01T16:39:39.188Z,208
2022-11-01T16:41:41.059Z,360
2022-11-01T16:45:43.372Z,360
2022-11-01T16:49:46.341Z,360
2022-11-01T16:51:47.869Z,360
2022-11-01T16:54:33.278Z,360
2022-11-01T16:56:37.288Z,360
2022-11-01T17:00:36.958Z,360
2022-11-01T17:04:39.765Z,360
2022-11-01T17:06:40.781Z,360
2022-11-01T17:08:42.288Z,360
2022-11-01T17:10:43.648Z,360
2022-11-01T17:12:44.848Z,360
2022-11-01T17:16:48.499Z,360
2022-11-01T17:18:49.893Z,360
2022-11-01T17:20:51.003Z,360
2022-11-01T17:22:52.852Z,360
2022-11-01T17:26:55.362Z,360
2022-11-01T17:28:56.590Z,360
2022-11-01T17:30:57.909Z,360
2022-11-01T17:32:59.551Z,360
2022-11-01T17:37:01.705Z,360
2022-11-01T17:39:03.003Z,360
2022-11-01T17:43:05.097Z,360
2022-11-01T17:47:08.564Z,360
2022-11-01T17:49:09.686Z,360
2022-11-01T17:53:13.154Z,360
2022-11-01T17:55:14.961Z,360
2022-11-01T17:57:16.019Z,360
2022-11-01T17:59:17.707Z,360
2022-11-01T18:05:21.603Z,360
2022-11-01T18:07:23.464Z,360
2022-11-01T18:09:25.260Z,360
2022-11-01T18:11:27.132Z,360
2022-11-01T18:15:30.031Z,360
2022-11-01T18:17:31.174Z,360
2022-11-01T18:19:32.632Z,360
2022-11-01T18:21:34.251Z,360
2022-11-01T18:25:36.466Z,210
2022-11-01T18:29:40.191Z,210
2022-11-01T18:31:41.315Z,210
2022-11-01T18:33:42.915Z,210
2022-11-01T18:35:44.799Z,210
2022-11-01T18:37:46.426Z,210
2022-11-01T18:39:47.824Z,210
2022-11-01T18:41:48.953Z,210
2022-11-01T18:43:49.873Z,210
2022-11-01T18:46:19.011Z,210
2022-11-01T18:47:52.954Z,210
2022-11-01T18:49:54.697Z,210
2022-11-01T18:51:56.593Z,210
2022-11-01T18:53:58.548Z,210
2022-11-01T18:58:00.941Z,210
2022-11-01T19:00:01.787Z,210
2022-11-01T19:02:03.830Z,210
2022-11-01T19:04:04.686Z,210
2022-11-01T19:08:21.139Z,210
2022-11-01T19:10:09.016Z,210
2022-11-01T19:14:11.561Z,210
2022-11-01T19:16:12.844Z,210
2022-11-01T19:18:14.044Z,210
2022-11-01T19:20:15.144Z,210
2022-11-01T19:22:16.146Z,210
2022-11-01T19:24:17.334Z,210
2022-11-01T19:28:19.858Z,210
2022-11-01T19:30:20.795Z,210
2022-11-01T19:32:22.212Z,210
2022-11-01T19:34:23.882Z,210
2022-11-01T19:36:25.280Z,210
2022-11-01T19:40:28.316Z,210
2022-11-01T19:42:30.030Z,210
2022-11-01T19:44:31.337Z,210
2022-11-01T19:46:32.848Z,210
2022-11-01T19:50:35.287Z,210
2022-11-01T19:52:36.576Z,210
2022-11-01T19:56:39.067Z,210
2022-11-01T20:00:41.962Z,210
2022-11-01T20:02:43.179Z,210
2022-11-01T20:06:45.591Z,210
2022-11-01T20:10:48.817Z,210
2022-11-01T20:12:50.123Z,210
2022-11-01T20:16:53.161Z,210
2022-11-01T20:18:54.699Z,210
2022-11-01T20:20:56.107Z,210
2022-11-01T20:23:12.931Z,210
2022-11-01T20:29:01.549Z,210
2022-11-01T20:31:02.868Z,210
2022-11-01T20:33:04.912Z,210
2022-11-01T20:35:06.458Z,210
2022-11-01T20:39:11.629Z,210
2022-11-01T20:41:11.156Z,210
2022-11-01T20:43:13.005Z,210
2022-11-01T20:45:14.558Z,210
2022-11-01T20:49:17.513Z,210
2022-11-01T20:53:20.982Z,210
2022-11-01T20:55:21.574Z,210
2022-11-01T20:57:27.854Z,210
2022-11-01T20:59:23.903Z,210
2022-11-01T21:01:25.632Z,210
2022-11-01T21:03:26.638Z,210
2022-11-01T21:05:28.292Z,210
2022-11-01T21:07:29.803Z,210
2022-11-01T21:09:31.460Z,210
2022-11-01T21:11:32.722Z,210
2022-11-01T21:13:34.495Z,210
2022-11-01T21:17:37.206Z,210
2022-11-01T21:21:46.470Z,210
2022-11-01T21:23:41.552Z,210
2022-11-01T21:27:43.865Z,210
2022-11-01T21:29:45.502Z,210
2022-11-01T21:31:46.760Z,210
2022-11-01T21:33:48.535Z,210
2022-11-01T21:35:50.139Z,210
2022-11-01T21:37:51.509Z,210
2022-11-01T21:41:54.623Z,210
2022-11-01T21:43:56.113Z,210
2022-11-01T21:45:58.042Z,210
2022-11-01T21:47:59.845Z,210
2022-11-01T21:50:00.989Z,210
2022-11-01T21:52:02.274Z,210
2022-11-01T21:54:04.579Z,210
2022-11-01T21:56:05.348Z,210
2022-11-01T21:58:06.833Z,210
2022-11-01T22:00:08.099Z,210
2022-11-01T22:04:11.603Z,210
2022-11-01T22:06:12.706Z,210
2022-11-01T22:10:15.401Z,210
2022-11-01T22:14:18.659Z,210
2022-11-01T22:16:20.153Z,210
2022-11-01T22:18:25.030Z,210
2022-11-01T22:20:23.709Z,210
2022-11-01T22:24:26.254Z,210
2022-11-01T22:26:27.764Z,210
2022-11-01T22:30:30.807Z,210
2022-11-01T22:34:34.208Z,210
2022-11-01T22:36:35.243Z,210
2022-11-01T22:38:37.170Z,210
2022-11-01T22:40:38.351Z,210
2022-11-01T22:42:39.444Z,210
2022-11-01T22:46:42.593Z,210
2022-11-01T22:48:44.364Z,210
2022-11-01T22:50:46.141Z,210
2022-11-01T22:52:47.531Z,210
2022-11-01T22:56:50.087Z,210
2022-11-01T22:58:51.537Z,210
2022-11-01T23:02:54.711Z,210
2022-11-01T23:06:57.592Z,210
2022-11-01T23:09:01.241Z,210
2022-11-01T23:13:02.018Z,210
2022-11-01T23:17:04.254Z,210
2022-11-01T23:19:05.492Z,210
2022-11-01T23:23:08.474Z,210
2022-11-01T23:25:09.710Z,210
2022-11-01T23:27:11.031Z,210
2022-11-01T23:29:12.090Z,210
2022-11-01T23:35:16.486Z,210
2022-11-01T23:37:17.637Z,210
2022-11-01T23:40:02.544Z,210
2022-11-01T23:42:04.471Z,210
2022-11-01T23:46:07.611Z,210
2022-11-01T23:50:10.389Z,210
2022-11-01T23:52:11.522Z,210
2022-11-01T23:54:12.974Z,210
2022-11-01T23:56:14.654Z,210
2022-11-01T23:58:15.872Z,210
